sensor_id;sensor_type;location;lat;lon;timestamp;pressure;altitude;pressure_sealevel;temperature;humidity
33859;BME280;20156;47.486;12.074;2023-03-23T00:01:08;94577.78;;;8.03;100.00
33859;BME280;20156;47.486;12.074;2023-03-23T00:03:39;94572.63;;;8.10;100.00
33859;BME280;20156;47.486;12.074;2023-03-23T00:06:05;94595.75;;;7.98;100.00
33859;BME280;20156;47.486;12.074;2023-03-23T00:08:36;94588.56;;;8.07;100.00
33859;BME280;20156;47.486;12.074;2023-03-23T00:11:16;94600.56;;;7.75;100.00
33859;BME280;20156;47.486;12.074;2023-03-23T00:13:44;94593.00;;;7.60;100.00
33859;BME280;20156;47.486;12.074;2023-03-23T00:16:12;94547.00;;;7.75;100.00
33859;BME280;20156;47.486;12.074;2023-03-23T00:18:50;94533.59;;;7.98;100.00
33859;BME280;20156;47.486;12.074;2023-03-23T00:21:20;94555.94;;;7.79;100.00
33859;BME280;20156;47.486;12.074;2023-03-23T00:23:45;94545.19;;;7.82;100.00
33859;BME280;20156;47.486;12.074;2023-03-23T00:26:12;94539.19;;;7.89;100.00
33859;BME280;20156;47.486;12.074;2023-03-23T00:28:37;94544.91;;;8.10;100.00
33859;BME280;20156;47.486;12.074;2023-03-23T00:31:06;94570.44;;;8.00;100.00
33859;BME280;20156;47.486;12.074;2023-03-23T00:33:35;94591.97;;;7.94;100.00
33859;BME280;20156;47.486;12.074;2023-03-23T00:36:04;94570.81;;;8.04;100.00
33859;BME280;20156;47.486;12.074;2023-03-23T00:38:30;94565.06;;;7.89;100.00
33859;BME280;20156;47.486;12.074;2023-03-23T00:40:56;94559.94;;;7.75;100.00
33859;BME280;20156;47.486;12.074;2023-03-23T00:43:23;94547.38;;;7.79;100.00
33859;BME280;20156;47.486;12.074;2023-03-23T00:45:50;94456.72;;;7.92;100.00
33859;BME280;20156;47.486;12.074;2023-03-23T00:48:23;94466.06;;;8.00;100.00
33859;BME280;20156;47.486;12.074;2023-03-23T00:50:49;94476.63;;;7.98;100.00
33859;BME280;20156;47.486;12.074;2023-03-23T00:53:16;94498.44;;;7.51;100.00
33859;BME280;20156;47.486;12.074;2023-03-23T00:55:43;94441.91;;;7.61;100.00
33859;BME280;20156;47.486;12.074;2023-03-23T00:58:10;94409.84;;;7.62;100.00
33859;BME280;20156;47.486;12.074;2023-03-23T01:00:36;94391.69;;;7.69;100.00
33859;BME280;20156;47.486;12.074;2023-03-23T01:03:01;94369.38;;;7.74;100.00
33859;BME280;20156;47.486;12.074;2023-03-23T01:05:26;94367.00;;;7.73;100.00
33859;BME280;20156;47.486;12.074;2023-03-23T01:07:58;94367.59;;;7.75;100.00
33859;BME280;20156;47.486;12.074;2023-03-23T01:10:23;94392.94;;;7.60;100.00
33859;BME280;20156;47.486;12.074;2023-03-23T01:12:52;94391.97;;;7.47;100.00
33859;BME280;20156;47.486;12.074;2023-03-23T01:15:18;94403.50;;;7.51;100.00
33859;BME280;20156;47.486;12.074;2023-03-23T01:17:44;94399.13;;;7.59;100.00
33859;BME280;20156;47.486;12.074;2023-03-23T01:20:12;94400.50;;;7.54;100.00
33859;BME280;20156;47.486;12.074;2023-03-23T01:22:39;94396.75;;;7.50;100.00
33859;BME280;20156;47.486;12.074;2023-03-23T01:25:05;94366.09;;;7.47;100.00
33859;BME280;20156;47.486;12.074;2023-03-23T01:27:31;94350.78;;;7.46;100.00
33859;BME280;20156;47.486;12.074;2023-03-23T01:29:57;94339.19;;;7.55;100.00
33859;BME280;20156;47.486;12.074;2023-03-23T01:32:22;94331.81;;;7.59;100.00
33859;BME280;20156;47.486;12.074;2023-03-23T01:34:48;94330.03;;;7.59;100.00
33859;BME280;20156;47.486;12.074;2023-03-23T01:37:13;94344.19;;;7.50;100.00
33859;BME280;20156;47.486;12.074;2023-03-23T01:39:41;94334.88;;;7.42;100.00
33859;BME280;20156;47.486;12.074;2023-03-23T01:42:08;94327.13;;;7.42;100.00
33859;BME280;20156;47.486;12.074;2023-03-23T01:47:00;94326.13;;;7.43;100.00
33859;BME280;20156;47.486;12.074;2023-03-23T01:49:33;94333.69;;;7.38;100.00
33859;BME280;20156;47.486;12.074;2023-03-23T01:52:03;94337.47;;;7.36;100.00
33859;BME280;20156;47.486;12.074;2023-03-23T01:54:30;94346.31;;;7.15;100.00
33859;BME280;20156;47.486;12.074;2023-03-23T01:57:02;94330.84;;;6.95;100.00
33859;BME280;20156;47.486;12.074;2023-03-23T01:59:30;94294.66;;;6.95;100.00
33859;BME280;20156;47.486;12.074;2023-03-23T02:01:57;94150.63;;;7.02;100.00
33859;BME280;20156;47.486;12.074;2023-03-23T02:04:24;94118.00;;;7.08;100.00
33859;BME280;20156;47.486;12.074;2023-03-23T02:06:51;94098.91;;;7.09;100.00
33859;BME280;20156;47.486;12.074;2023-03-23T02:09:18;94067.03;;;7.15;100.00
33859;BME280;20156;47.486;12.074;2023-03-23T02:11:45;94075.50;;;6.97;100.00
33859;BME280;20156;47.486;12.074;2023-03-23T02:14:12;94064.53;;;7.02;100.00
33859;BME280;20156;47.486;12.074;2023-03-23T02:16:45;94064.00;;;7.18;100.00
33859;BME280;20156;47.486;12.074;2023-03-23T02:24:53;94116.56;;;6.80;100.00
33859;BME280;20156;47.486;12.074;2023-03-23T02:35:48;94044.81;;;7.07;100.00
33859;BME280;20156;47.486;12.074;2023-03-23T02:38:22;94056.69;;;6.90;100.00
33859;BME280;20156;47.486;12.074;2023-03-23T02:40:53;94025.84;;;6.88;100.00
33859;BME280;20156;47.486;12.074;2023-03-23T02:43:22;94013.19;;;7.05;100.00
33859;BME280;20156;47.486;12.074;2023-03-23T02:45:50;94021.59;;;7.01;100.00
33859;BME280;20156;47.486;12.074;2023-03-23T02:48:18;94029.03;;;6.90;100.00
33859;BME280;20156;47.486;12.074;2023-03-23T02:50:47;94000.81;;;6.89;100.00
33859;BME280;20156;47.486;12.074;2023-03-23T02:53:19;93976.47;;;6.97;100.00
33859;BME280;20156;47.486;12.074;2023-03-23T02:55:46;93951.88;;;7.12;100.00
33859;BME280;20156;47.486;12.074;2023-03-23T02:58:13;93961.28;;;7.07;100.00
33859;BME280;20156;47.486;12.074;2023-03-23T03:00:39;93959.97;;;7.22;100.00
33859;BME280;20156;47.486;12.074;2023-03-23T03:03:09;93994.44;;;7.35;100.00
33859;BME280;20156;47.486;12.074;2023-03-23T03:05:38;94055.03;;;6.96;100.00
33859;BME280;20156;47.486;12.074;2023-03-23T03:08:45;94058.75;;;6.75;100.00
33859;BME280;20156;47.486;12.074;2023-03-23T03:11:12;94050.28;;;6.61;100.00
33859;BME280;20156;47.486;12.074;2023-03-23T03:16:06;93995.78;;;6.94;100.00
33859;BME280;20156;47.486;12.074;2023-03-23T03:21:07;93973.84;;;7.03;100.00
33859;BME280;20156;47.486;12.074;2023-03-23T03:23:37;93986.59;;;6.98;100.00
33859;BME280;20156;47.486;12.074;2023-03-23T03:26:04;93992.06;;;6.90;100.00
33859;BME280;20156;47.486;12.074;2023-03-23T03:28:32;93982.81;;;7.01;100.00
33859;BME280;20156;47.486;12.074;2023-03-23T03:31:01;93988.94;;;7.06;100.00
33859;BME280;20156;47.486;12.074;2023-03-23T03:33:28;94005.25;;;7.07;100.00
33859;BME280;20156;47.486;12.074;2023-03-23T03:35:59;94042.19;;;6.82;100.00
33859;BME280;20156;47.486;12.074;2023-03-23T03:38:25;94046.75;;;6.55;100.00
33859;BME280;20156;47.486;12.074;2023-03-23T03:40:51;94015.13;;;6.60;100.00
33859;BME280;20156;47.486;12.074;2023-03-23T03:43:17;93993.56;;;6.73;100.00
33859;BME280;20156;47.486;12.074;2023-03-23T03:45:43;93976.88;;;6.69;100.00
33859;BME280;20156;47.486;12.074;2023-03-23T03:48:09;93964.41;;;6.66;100.00
33859;BME280;20156;47.486;12.074;2023-03-23T03:50:35;93948.22;;;6.77;100.00
33859;BME280;20156;47.486;12.074;2023-03-23T03:53:00;93939.63;;;6.83;100.00
33859;BME280;20156;47.486;12.074;2023-03-23T03:55:26;93960.78;;;6.73;100.00
33859;BME280;20156;47.486;12.074;2023-03-23T03:57:53;93975.00;;;6.57;100.00
33859;BME280;20156;47.486;12.074;2023-03-23T04:00:20;93971.34;;;6.65;100.00
33859;BME280;20156;47.486;12.074;2023-03-23T04:02:47;93968.13;;;6.70;100.00
33859;BME280;20156;47.486;12.074;2023-03-23T04:05:16;93954.91;;;6.59;100.00
33859;BME280;20156;47.486;12.074;2023-03-23T04:07:42;93931.31;;;6.49;100.00
33859;BME280;20156;47.486;12.074;2023-03-23T04:10:09;93876.06;;;6.50;100.00
33859;BME280;20156;47.486;12.074;2023-03-23T04:12:36;93852.56;;;6.58;100.00
33859;BME280;20156;47.486;12.074;2023-03-23T04:15:03;93820.22;;;6.74;100.00
33859;BME280;20156;47.486;12.074;2023-03-23T04:17:29;93832.22;;;6.87;100.00
33859;BME280;20156;47.486;12.074;2023-03-23T04:19:55;93834.97;;;6.92;100.00
33859;BME280;20156;47.486;12.074;2023-03-23T04:22:24;93860.34;;;6.77;100.00
33859;BME280;20156;47.486;12.074;2023-03-23T04:24:57;93886.38;;;6.57;100.00
33859;BME280;20156;47.486;12.074;2023-03-23T04:27:25;93876.06;;;6.50;100.00
33859;BME280;20156;47.486;12.074;2023-03-23T04:29:50;93843.25;;;6.57;100.00
33859;BME280;20156;47.486;12.074;2023-03-23T04:32:16;93831.84;;;6.65;100.00
33859;BME280;20156;47.486;12.074;2023-03-23T04:34:43;93820.22;;;6.74;100.00
33859;BME280;20156;47.486;12.074;2023-03-23T04:37:09;93840.13;;;6.74;100.00
33859;BME280;20156;47.486;12.074;2023-03-23T04:39:35;93847.56;;;6.82;100.00
33859;BME280;20156;47.486;12.074;2023-03-23T04:42:01;93881.06;;;6.70;100.00
33859;BME280;20156;47.486;12.074;2023-03-23T04:44:27;93910.88;;;6.48;100.00
33859;BME280;20156;47.486;12.074;2023-03-23T04:46:53;93933.19;;;6.36;100.00
33859;BME280;20156;47.486;12.074;2023-03-23T04:49:19;93932.91;;;6.19;100.00
33859;BME280;20156;47.486;12.074;2023-03-23T04:51:48;93921.06;;;6.43;100.00
33859;BME280;20156;47.486;12.074;2023-03-23T04:54:16;93900.91;;;6.51;100.00
33859;BME280;20156;47.486;12.074;2023-03-23T04:56:41;93909.97;;;6.60;100.00
33859;BME280;20156;47.486;12.074;2023-03-23T04:59:07;93952.63;;;6.45;100.00
33859;BME280;20156;47.486;12.074;2023-03-23T05:01:33;93988.91;;;6.18;100.00
33859;BME280;20156;47.486;12.074;2023-03-23T05:03:59;93970.69;;;6.13;100.00
33859;BME280;20156;47.486;12.074;2023-03-23T05:06:25;93950.13;;;6.31;100.00
33859;BME280;20156;47.486;12.074;2023-03-23T05:08:51;93928.59;;;6.44;100.00
33859;BME280;20156;47.486;12.074;2023-03-23T05:11:16;93926.44;;;6.41;100.00
33859;BME280;20156;47.486;12.074;2023-03-23T05:13:41;93915.63;;;6.51;100.00
33859;BME280;20156;47.486;12.074;2023-03-23T05:16:09;93931.16;;;6.44;100.00
33859;BME280;20156;47.486;12.074;2023-03-23T05:18:35;93921.31;;;6.59;100.00
33859;BME280;20156;47.486;12.074;2023-03-23T05:21:03;93929.06;;;6.59;100.00
33859;BME280;20156;47.486;12.074;2023-03-23T05:23:29;93951.03;;;6.44;100.00
33859;BME280;20156;47.486;12.074;2023-03-23T05:25:59;93989.16;;;6.10;100.00
33859;BME280;20156;47.486;12.074;2023-03-23T05:28:28;93994.34;;;6.10;100.00
33859;BME280;20156;47.486;12.074;2023-03-23T05:30:53;93978.06;;;6.10;100.00
33859;BME280;20156;47.486;12.074;2023-03-23T05:33:21;93966.88;;;6.22;100.00
33859;BME280;20156;47.486;12.074;2023-03-23T05:35:47;93968.84;;;6.20;100.00
33859;BME280;20156;47.486;12.074;2023-03-23T05:38:13;93953.84;;;6.42;100.00
33859;BME280;20156;47.486;12.074;2023-03-23T05:40:40;93981.88;;;6.39;100.00
33859;BME280;20156;47.486;12.074;2023-03-23T05:43:07;94003.41;;;6.19;100.00
33859;BME280;20156;47.486;12.074;2023-03-23T05:45:33;94000.44;;;6.16;100.00
33859;BME280;20156;47.486;12.074;2023-03-23T05:47:59;93976.34;;;6.28;100.00
33859;BME280;20156;47.486;12.074;2023-03-23T05:50:25;93957.41;;;6.41;100.00
33859;BME280;20156;47.486;12.074;2023-03-23T05:52:50;93973.16;;;6.33;100.00
33859;BME280;20156;47.486;12.074;2023-03-23T05:55:16;93992.50;;;6.17;100.00
33859;BME280;20156;47.486;12.074;2023-03-23T05:57:42;93982.44;;;6.09;100.00
33859;BME280;20156;47.486;12.074;2023-03-23T06:00:08;93969.25;;;6.24;100.00
33859;BME280;20156;47.486;12.074;2023-03-23T06:02:40;93937.66;;;6.53;100.00
33859;BME280;20156;47.486;12.074;2023-03-23T06:05:10;93957.66;;;6.64;100.00
33859;BME280;20156;47.486;12.074;2023-03-23T06:07:36;93995.66;;;6.57;100.00
33859;BME280;20156;47.486;12.074;2023-03-23T06:10:04;94007.44;;;6.47;100.00
33859;BME280;20156;47.486;12.074;2023-03-23T06:12:29;93995.47;;;6.52;100.00
33859;BME280;20156;47.486;12.074;2023-03-23T06:14:56;93989.28;;;6.60;100.00
33859;BME280;20156;47.486;12.074;2023-03-23T06:17:22;93975.84;;;6.76;100.00
33859;BME280;20156;47.486;12.074;2023-03-23T06:19:47;93960.41;;;6.94;100.00
33859;BME280;20156;47.486;12.074;2023-03-23T06:22:16;93971.25;;;7.03;100.00
33859;BME280;20156;47.486;12.074;2023-03-23T06:24:41;93979.56;;;7.05;100.00
33859;BME280;20156;47.486;12.074;2023-03-23T06:27:07;93973.03;;;7.03;100.00
33859;BME280;20156;47.486;12.074;2023-03-23T06:29:34;93954.34;;;7.26;100.00
33859;BME280;20156;47.486;12.074;2023-03-23T06:32:01;93973.97;;;7.51;100.00
33859;BME280;20156;47.486;12.074;2023-03-23T06:34:28;93986.69;;;7.71;100.00
33859;BME280;20156;47.486;12.074;2023-03-23T06:36:53;93958.72;;;7.98;100.00
33859;BME280;20156;47.486;12.074;2023-03-23T06:39:19;93940.56;;;8.17;100.00
33859;BME280;20156;47.486;12.074;2023-03-23T06:41:44;93949.03;;;8.24;100.00
33859;BME280;20156;47.486;12.074;2023-03-23T06:44:10;93993.88;;;8.54;100.00
33859;BME280;20156;47.486;12.074;2023-03-23T06:46:39;94062.00;;;8.73;100.00
33859;BME280;20156;47.486;12.074;2023-03-23T06:49:05;94164.06;;;8.79;100.00
33859;BME280;20156;47.486;12.074;2023-03-23T06:51:30;94215.66;;;9.17;100.00
33859;BME280;20156;47.486;12.074;2023-03-23T06:53:56;94274.75;;;9.33;100.00
33859;BME280;20156;47.486;12.074;2023-03-23T06:56:23;94297.81;;;9.41;100.00
33859;BME280;20156;47.486;12.074;2023-03-23T06:58:48;94398.09;;;9.35;100.00
33859;BME280;20156;47.486;12.074;2023-03-23T07:01:13;94465.00;;;9.33;100.00
33859;BME280;20156;47.486;12.074;2023-03-23T07:03:40;94485.94;;;9.57;100.00
33859;BME280;20156;47.486;12.074;2023-03-23T07:06:07;94536.13;;;9.51;100.00
33859;BME280;20156;47.486;12.074;2023-03-23T07:08:33;94528.47;;;9.56;100.00
33859;BME280;20156;47.486;12.074;2023-03-23T07:10:59;94498.88;;;9.63;100.00
33859;BME280;20156;47.486;12.074;2023-03-23T07:13:24;94491.19;;;9.50;100.00
33859;BME280;20156;47.486;12.074;2023-03-23T07:15:50;94474.91;;;9.43;100.00
33859;BME280;20156;47.486;12.074;2023-03-23T07:18:16;94447.97;;;9.38;100.00
33859;BME280;20156;47.486;12.074;2023-03-23T07:20:42;94437.81;;;9.36;100.00
33859;BME280;20156;47.486;12.074;2023-03-23T07:23:08;94463.56;;;9.38;100.00
33859;BME280;20156;47.486;12.074;2023-03-23T07:25:34;94483.91;;;9.41;100.00
33859;BME280;20156;47.486;12.074;2023-03-23T07:28:01;94495.59;;;9.50;100.00
33859;BME280;20156;47.486;12.074;2023-03-23T07:30:27;94471.88;;;9.46;100.00
33859;BME280;20156;47.486;12.074;2023-03-23T07:32:55;94415.56;;;9.47;100.00
33859;BME280;20156;47.486;12.074;2023-03-23T07:35:22;94414.63;;;9.59;100.00
33859;BME280;20156;47.486;12.074;2023-03-23T07:37:47;94467.72;;;9.63;100.00
33859;BME280;20156;47.486;12.074;2023-03-23T07:40:14;94483.50;;;9.80;100.00
33859;BME280;20156;47.486;12.074;2023-03-23T07:42:45;94519.44;;;9.83;100.00
33859;BME280;20156;47.486;12.074;2023-03-23T07:45:12;94452.13;;;9.82;100.00
33859;BME280;20156;47.486;12.074;2023-03-23T07:47:39;94424.56;;;9.81;100.00
33859;BME280;20156;47.486;12.074;2023-03-23T07:50:05;94413.22;;;9.93;100.00
33859;BME280;20156;47.486;12.074;2023-03-23T07:52:32;94463.16;;;10.14;100.00
33859;BME280;20156;47.486;12.074;2023-03-23T07:54:58;94517.63;;;10.20;100.00
33859;BME280;20156;47.486;12.074;2023-03-23T07:57:23;94543.50;;;10.34;100.00
33859;BME280;20156;47.486;12.074;2023-03-23T07:59:49;94576.44;;;10.40;100.00
33859;BME280;20156;47.486;12.074;2023-03-23T08:02:14;94607.50;;;10.35;100.00
33859;BME280;20156;47.486;12.074;2023-03-23T08:04:40;94625.91;;;10.51;100.00
33859;BME280;20156;47.486;12.074;2023-03-23T08:07:05;94630.22;;;10.58;100.00
33859;BME280;20156;47.486;12.074;2023-03-23T08:09:31;94674.66;;;10.74;100.00
33859;BME280;20156;47.486;12.074;2023-03-23T08:11:56;94715.34;;;10.69;100.00
33859;BME280;20156;47.486;12.074;2023-03-23T08:14:23;94735.50;;;10.73;100.00
33859;BME280;20156;47.486;12.074;2023-03-23T08:16:53;94810.91;;;10.80;100.00
33859;BME280;20156;47.486;12.074;2023-03-23T08:19:20;94847.94;;;11.00;100.00
33859;BME280;20156;47.486;12.074;2023-03-23T08:21:46;94870.53;;;11.25;100.00
33859;BME280;20156;47.486;12.074;2023-03-23T08:24:11;94903.09;;;11.15;100.00
33859;BME280;20156;47.486;12.074;2023-03-23T08:26:38;94863.28;;;11.08;100.00
33859;BME280;20156;47.486;12.074;2023-03-23T08:29:03;94826.50;;;11.23;100.00
33859;BME280;20156;47.486;12.074;2023-03-23T08:31:29;94833.38;;;11.54;100.00
33859;BME280;20156;47.486;12.074;2023-03-23T08:33:54;94849.06;;;11.66;100.00
33859;BME280;20156;47.486;12.074;2023-03-23T08:36:22;94971.44;;;11.79;100.00
33859;BME280;20156;47.486;12.074;2023-03-23T08:38:47;95026.41;;;11.96;100.00
33859;BME280;20156;47.486;12.074;2023-03-23T08:41:13;95037.41;;;12.16;100.00
33859;BME280;20156;47.486;12.074;2023-03-23T08:43:39;95116.53;;;12.28;100.00
33859;BME280;20156;47.486;12.074;2023-03-23T08:46:05;95138.00;;;12.30;100.00
33859;BME280;20156;47.486;12.074;2023-03-23T08:48:34;95146.84;;;12.48;100.00
33859;BME280;20156;47.486;12.074;2023-03-23T08:51:01;95157.94;;;12.61;100.00
33859;BME280;20156;47.486;12.074;2023-03-23T08:53:26;95157.88;;;12.50;100.00
33859;BME280;20156;47.486;12.074;2023-03-23T08:55:55;95159.25;;;12.52;100.00
33859;BME280;20156;47.486;12.074;2023-03-23T08:58:21;95153.22;;;12.52;100.00
33859;BME280;20156;47.486;12.074;2023-03-23T09:00:47;95147.88;;;12.47;100.00
33859;BME280;20156;47.486;12.074;2023-03-23T09:03:13;95139.09;;;12.78;100.00
33859;BME280;20156;47.486;12.074;2023-03-23T09:05:38;95119.72;;;12.85;100.00
33859;BME280;20156;47.486;12.074;2023-03-23T09:08:08;95137.47;;;12.58;100.00
33859;BME280;20156;47.486;12.074;2023-03-23T09:10:33;95135.28;;;12.92;100.00
33859;BME280;20156;47.486;12.074;2023-03-23T09:12:59;95141.31;;;12.92;100.00
33859;BME280;20156;47.486;12.074;2023-03-23T09:15:24;95138.50;;;12.76;100.00
33859;BME280;20156;47.486;12.074;2023-03-23T09:17:51;95109.53;;;13.14;100.00
33859;BME280;20156;47.486;12.074;2023-03-23T09:20:20;95138.59;;;13.17;100.00
33859;BME280;20156;47.486;12.074;2023-03-23T09:22:50;95152.69;;;13.16;100.00
33859;BME280;20156;47.486;12.074;2023-03-23T09:25:18;95177.00;;;13.17;100.00
33859;BME280;20156;47.486;12.074;2023-03-23T09:27:49;95169.56;;;12.84;100.00
33859;BME280;20156;47.486;12.074;2023-03-23T09:30:19;95177.94;;;13.22;100.00
33859;BME280;20156;47.486;12.074;2023-03-23T09:32:45;95176.47;;;13.45;100.00
33859;BME280;20156;47.486;12.074;2023-03-23T09:35:14;95170.13;;;13.52;100.00
33859;BME280;20156;47.486;12.074;2023-03-23T09:37:42;95190.03;;;13.53;100.00
33859;BME280;20156;47.486;12.074;2023-03-23T09:40:15;95175.41;;;13.64;100.00
33859;BME280;20156;47.486;12.074;2023-03-23T09:45:40;95196.88;;;13.66;100.00
33859;BME280;20156;47.486;12.074;2023-03-23T09:50:42;95231.38;;;14.28;100.00
33859;BME280;20156;47.486;12.074;2023-03-23T09:53:22;95233.22;;;14.39;100.00
33859;BME280;20156;47.486;12.074;2023-03-23T09:55:49;95244.25;;;14.41;100.00
33859;BME280;20156;47.486;12.074;2023-03-23T09:58:26;95250.13;;;14.79;100.00
33859;BME280;20156;47.486;12.074;2023-03-23T10:01:17;95248.91;;;14.39;100.00
33859;BME280;20156;47.486;12.074;2023-03-23T10:03:46;95249.75;;;14.87;100.00
33859;BME280;20156;47.486;12.074;2023-03-23T10:06:15;95247.50;;;14.79;100.00
33859;BME280;20156;47.486;12.074;2023-03-23T10:08:54;95237.00;;;14.55;100.00
33859;BME280;20156;47.486;12.074;2023-03-23T10:14:04;95246.00;;;14.94;100.00
33859;BME280;20156;47.486;12.074;2023-03-23T10:16:37;95244.63;;;15.03;100.00
33859;BME280;20156;47.486;12.074;2023-03-23T10:21:52;95220.38;;;15.48;100.00
33859;BME280;20156;47.486;12.074;2023-03-23T10:24:21;95215.09;;;15.60;100.00
33859;BME280;20156;47.486;12.074;2023-03-23T10:27:10;95233.75;;;15.75;100.00
33859;BME280;20156;47.486;12.074;2023-03-23T10:30:40;95224.78;;;15.88;100.00
33859;BME280;20156;47.486;12.074;2023-03-23T10:35:42;95196.09;;;15.81;100.00
33859;BME280;20156;47.486;12.074;2023-03-23T10:38:16;95202.84;;;15.94;100.00
33859;BME280;20156;47.486;12.074;2023-03-23T10:41:04;95190.16;;;16.19;100.00
33859;BME280;20156;47.486;12.074;2023-03-23T10:43:30;95177.09;;;16.24;100.00
33859;BME280;20156;47.486;12.074;2023-03-23T10:46:16;95177.63;;;16.77;100.00
33859;BME280;20156;47.486;12.074;2023-03-23T10:48:43;95156.41;;;17.00;100.00
33859;BME280;20156;47.486;12.074;2023-03-23T10:51:11;95150.94;;;17.07;100.00
33859;BME280;20156;47.486;12.074;2023-03-23T10:53:58;95152.41;;;17.20;100.00
33859;BME280;20156;47.486;12.074;2023-03-23T10:59:12;95146.75;;;17.55;100.00
33859;BME280;20156;47.486;12.074;2023-03-23T11:01:39;95120.28;;;17.39;100.00
33859;BME280;20156;47.486;12.074;2023-03-23T11:04:12;95132.97;;;17.69;100.00
33859;BME280;20156;47.486;12.074;2023-03-23T11:06:44;95107.03;;;17.56;100.00
33859;BME280;20156;47.486;12.074;2023-03-23T11:09:11;95100.00;;;17.13;100.00
33859;BME280;20156;47.486;12.074;2023-03-23T11:11:40;95085.69;;;17.53;100.00
33859;BME280;20156;47.486;12.074;2023-03-23T11:14:32;95055.66;;;16.95;100.00
33859;BME280;20156;47.486;12.074;2023-03-23T11:17:04;95062.09;;;17.31;100.00
33859;BME280;20156;47.486;12.074;2023-03-23T11:19:32;95042.09;;;17.94;100.00
33859;BME280;20156;47.486;12.074;2023-03-23T11:22:13;95020.06;;;18.10;100.00
33859;BME280;20156;47.486;12.074;2023-03-23T11:24:44;95020.66;;;18.17;100.00
33859;BME280;20156;47.486;12.074;2023-03-23T11:27:10;95046.19;;;17.80;100.00
33859;BME280;20156;47.486;12.074;2023-03-23T11:29:47;94995.22;;;17.91;100.00
33859;BME280;20156;47.486;12.074;2023-03-23T11:32:14;94978.97;;;18.04;100.00
33859;BME280;20156;47.486;12.074;2023-03-23T11:34:43;94986.28;;;17.97;100.00
33859;BME280;20156;47.486;12.074;2023-03-23T11:37:14;94999.97;;;17.94;100.00
33859;BME280;20156;47.486;12.074;2023-03-23T11:39:55;95027.09;;;17.94;100.00
33859;BME280;20156;47.486;12.074;2023-03-23T11:42:49;95031.59;;;17.99;100.00
33859;BME280;20156;47.486;12.074;2023-03-23T11:48:33;95005.19;;;17.84;100.00
33859;BME280;20156;47.486;12.074;2023-03-23T11:50:54;94996.91;;;18.12;100.00
33859;BME280;20156;47.486;12.074;2023-03-23T11:56:06;94974.78;;;17.66;100.00
33859;BME280;20156;47.486;12.074;2023-03-23T11:58:33;94960.34;;;17.68;100.00
33859;BME280;20156;47.486;12.074;2023-03-23T12:06:29;94927.91;;;18.10;100.00
33859;BME280;20156;47.486;12.074;2023-03-23T12:09:12;94913.84;;;18.52;100.00
33859;BME280;20156;47.486;12.074;2023-03-23T12:12:08;94931.25;;;18.58;100.00
33859;BME280;20156;47.486;12.074;2023-03-23T12:15:01;94887.22;;;18.53;100.00
33859;BME280;20156;47.486;12.074;2023-03-23T12:20:34;94878.59;;;18.73;100.00
33859;BME280;20156;47.486;12.074;2023-03-23T12:25:45;94810.06;;;18.63;100.00
33859;BME280;20156;47.486;12.074;2023-03-23T12:47:41;94734.16;;;18.70;100.00
33859;BME280;20156;47.486;12.074;2023-03-23T12:50:13;94722.50;;;18.97;100.00
33859;BME280;20156;47.486;12.074;2023-03-23T12:52:57;94722.03;;;18.64;100.00
33859;BME280;20156;47.486;12.074;2023-03-23T12:55:37;94737.59;;;18.35;100.00
33859;BME280;20156;47.486;12.074;2023-03-23T12:58:34;94694.56;;;18.96;100.00
33859;BME280;20156;47.486;12.074;2023-03-23T13:01:22;94681.84;;;19.13;100.00
33859;BME280;20156;47.486;12.074;2023-03-23T13:06:41;94667.59;;;19.14;100.00
33859;BME280;20156;47.486;12.074;2023-03-23T13:11:40;94696.22;;;19.56;100.00
33859;BME280;20156;47.486;12.074;2023-03-23T13:20:16;94647.16;;;18.85;100.00
33859;BME280;20156;47.486;12.074;2023-03-23T13:25:19;94712.25;;;18.59;100.00
33859;BME280;20156;47.486;12.074;2023-03-23T13:27:59;94710.16;;;18.61;100.00
33859;BME280;20156;47.486;12.074;2023-03-23T13:30:27;94720.72;;;18.56;100.00
33859;BME280;20156;47.486;12.074;2023-03-23T13:33:02;94718.63;;;18.69;100.00
33859;BME280;20156;47.486;12.074;2023-03-23T13:35:34;94687.16;;;18.98;100.00
33859;BME280;20156;47.486;12.074;2023-03-23T13:38:01;94661.94;;;19.41;100.00
33859;BME280;20156;47.486;12.074;2023-03-23T13:40:29;94630.00;;;19.42;100.00
33859;BME280;20156;47.486;12.074;2023-03-23T13:42:58;94621.13;;;19.33;100.00
33859;BME280;20156;47.486;12.074;2023-03-23T13:48:19;94631.13;;;19.31;100.00
33859;BME280;20156;47.486;12.074;2023-03-23T13:50:58;94612.91;;;19.35;100.00
33859;BME280;20156;47.486;12.074;2023-03-23T13:53:27;94625.00;;;19.41;100.00
33859;BME280;20156;47.486;12.074;2023-03-23T13:56:13;94644.69;;;19.69;100.00
33859;BME280;20156;47.486;12.074;2023-03-23T13:58:50;94667.19;;;19.95;100.00
33859;BME280;20156;47.486;12.074;2023-03-23T14:01:33;94649.91;;;19.74;100.00
33859;BME280;20156;47.486;12.074;2023-03-23T14:04:02;94629.13;;;20.01;100.00
33859;BME280;20156;47.486;12.074;2023-03-23T14:06:34;94620.72;;;19.94;100.00
33859;BME280;20156;47.486;12.074;2023-03-23T14:09:13;94624.53;;;20.12;100.00
33859;BME280;20156;47.486;12.074;2023-03-23T14:12:03;94575.56;;;19.62;100.00
33859;BME280;20156;47.486;12.074;2023-03-23T14:14:45;94586.66;;;19.59;100.00
33859;BME280;20156;47.486;12.074;2023-03-23T14:17:15;94611.16;;;19.64;100.00
33859;BME280;20156;47.486;12.074;2023-03-23T14:19:47;94597.28;;;19.48;100.00
33859;BME280;20156;47.486;12.074;2023-03-23T14:22:23;94572.84;;;19.28;100.00
33859;BME280;20156;47.486;12.074;2023-03-23T14:24:49;94553.59;;;19.32;100.00
33859;BME280;20156;47.486;12.074;2023-03-23T14:27:21;94563.06;;;19.33;100.00